エカテリンブルク の空港の天気 - METARとTAF

コルツォヴォ空港 ( USSS / SVX ) - ロシア エカテリンブルク
飛行場実況気象(Metar)
観測時間01/17 11:30 +05 (01/17 06:30 UTC)
風向・風速静穏 0m/s
視程4600m
天気現象もや
なし
気温-17℃
湿度84%
気圧1037hPa
METARUSSS 170630Z 00000MPS 4600 2100W BR NSC M17/M19 Q1037 R26R/190037 TEMPO 0300 FZFG VV002 RMK QFE756/1009
過去の天気等 Google飛行場航空写真 Wunderground天気予報

過去48時間のMETAR

飛行場予報(TAF)
発表時間: 1/17 11:00 +05 (1/17 06:00 UTC)
予報対象時間: 17日11時 +05 ~ 18日11時 +05
風向・風速南西 3m/s
視程3,000m
天気現象もや
全天の4割程度の雲 雲底高度 210m
17日11時 +05 ~ 18日11時 +05 に一時的に
視程300m
天気現象
全天を覆う雲 鉛直視程 60m
TAF AMD USSS 170600Z 1706/1806 23003MPS 3000 BR SCT007
TEMPO 1706/1806 0300 FG VV002